sensor_id;sensor_type;location;lat;lon;timestamp;temperature;humidity
15328;DHT22;7764;51.430;6.840;2023-09-12T00:00:23;21.80;99.90
15328;DHT22;7764;51.430;6.840;2023-09-12T00:02:50;21.90;99.90
15328;DHT22;7764;51.430;6.840;2023-09-12T00:05:17;21.60;99.90
15328;DHT22;7764;51.430;6.840;2023-09-12T00:07:45;21.60;99.90
15328;DHT22;7764;51.430;6.840;2023-09-12T00:10:12;21.60;99.90
15328;DHT22;7764;51.430;6.840;2023-09-12T00:12:39;21.50;99.90
15328;DHT22;7764;51.430;6.840;2023-09-12T00:15:06;21.60;99.90
15328;DHT22;7764;51.430;6.840;2023-09-12T00:17:34;21.50;99.90
15328;DHT22;7764;51.430;6.840;2023-09-12T00:20:01;21.50;99.90
15328;DHT22;7764;51.430;6.840;2023-09-12T00:22:28;21.40;99.90
15328;DHT22;7764;51.430;6.840;2023-09-12T00:27:24;21.40;99.90
15328;DHT22;7764;51.430;6.840;2023-09-12T00:32:18;21.30;99.90
15328;DHT22;7764;51.430;6.840;2023-09-12T00:34:45;21.40;99.90
15328;DHT22;7764;51.430;6.840;2023-09-12T00:37:11;21.30;99.90
15328;DHT22;7764;51.430;6.840;2023-09-12T00:39:38;21.30;99.90
15328;DHT22;7764;51.430;6.840;2023-09-12T00:42:07;21.30;99.90
15328;DHT22;7764;51.430;6.840;2023-09-12T00:44:34;21.40;99.90
15328;DHT22;7764;51.430;6.840;2023-09-12T00:47:01;21.30;99.90
15328;DHT22;7764;51.430;6.840;2023-09-12T00:49:29;21.40;99.90
15328;DHT22;7764;51.430;6.840;2023-09-12T00:51:57;21.40;99.90
15328;DHT22;7764;51.430;6.840;2023-09-12T00:54:25;21.50;99.90
15328;DHT22;7764;51.430;6.840;2023-09-12T00:56:52;21.50;99.90
15328;DHT22;7764;51.430;6.840;2023-09-12T00:59:20;21.50;99.90
15328;DHT22;7764;51.430;6.840;2023-09-12T01:01:48;21.50;99.90
15328;DHT22;7764;51.430;6.840;2023-09-12T01:09:11;21.20;99.90
15328;DHT22;7764;51.430;6.840;2023-09-12T01:11:39;21.30;99.90
15328;DHT22;7764;51.430;6.840;2023-09-12T01:14:06;21.30;99.90
15328;DHT22;7764;51.430;6.840;2023-09-12T01:16:34;21.20;99.90
15328;DHT22;7764;51.430;6.840;2023-09-12T01:19:02;21.20;99.90
15328;DHT22;7764;51.430;6.840;2023-09-12T01:24:40;21.00;99.90
15328;DHT22;7764;51.430;6.840;2023-09-12T01:27:21;21.20;99.90
15328;DHT22;7764;51.430;6.840;2023-09-12T01:29:56;21.20;99.90
15328;DHT22;7764;51.430;6.840;2023-09-12T01:42:17;20.90;99.90
15328;DHT22;7764;51.430;6.840;2023-09-12T01:44:47;20.90;99.90
15328;DHT22;7764;51.430;6.840;2023-09-12T04:46:52;20.70;99.90
15328;DHT22;7764;51.430;6.840;2023-09-12T04:49:19;20.90;99.90
15328;DHT22;7764;51.430;6.840;2023-09-12T04:51:46;20.80;99.90
15328;DHT22;7764;51.430;6.840;2023-09-12T04:54:14;20.80;99.90
15328;DHT22;7764;51.430;6.840;2023-09-12T04:56:41;20.70;99.90
15328;DHT22;7764;51.430;6.840;2023-09-12T04:59:07;20.80;99.90
15328;DHT22;7764;51.430;6.840;2023-09-12T05:01:34;20.80;99.90
15328;DHT22;7764;51.430;6.840;2023-09-12T05:04:02;20.90;99.90
15328;DHT22;7764;51.430;6.840;2023-09-12T05:06:29;20.90;99.90
15328;DHT22;7764;51.430;6.840;2023-09-12T05:08:56;20.90;99.90
15328;DHT22;7764;51.430;6.840;2023-09-12T05:11:24;21.00;99.90
15328;DHT22;7764;51.430;6.840;2023-09-12T05:13:52;20.90;99.90
15328;DHT22;7764;51.430;6.840;2023-09-12T05:16:18;20.90;99.90
15328;DHT22;7764;51.430;6.840;2023-09-12T05:18:45;20.90;99.90
15328;DHT22;7764;51.430;6.840;2023-09-12T05:21:14;20.90;99.90
15328;DHT22;7764;51.430;6.840;2023-09-12T05:23:41;20.80;99.90
15328;DHT22;7764;51.430;6.840;2023-09-12T05:26:08;20.90;99.90
15328;DHT22;7764;51.430;6.840;2023-09-12T05:28:36;20.90;99.90
15328;DHT22;7764;51.430;6.840;2023-09-12T05:31:03;21.00;99.90
15328;DHT22;7764;51.430;6.840;2023-09-12T05:33:30;21.00;99.90
15328;DHT22;7764;51.430;6.840;2023-09-12T05:35:58;20.90;99.90
15328;DHT22;7764;51.430;6.840;2023-09-12T05:38:24;20.90;99.90
15328;DHT22;7764;51.430;6.840;2023-09-12T05:40:54;20.90;99.90
15328;DHT22;7764;51.430;6.840;2023-09-12T05:43:22;20.90;99.90
15328;DHT22;7764;51.430;6.840;2023-09-12T05:45:50;20.80;99.90
15328;DHT22;7764;51.430;6.840;2023-09-12T05:48:17;20.90;99.90
15328;DHT22;7764;51.430;6.840;2023-09-12T05:50:46;20.80;99.90
15328;DHT22;7764;51.430;6.840;2023-09-12T05:53:13;20.80;99.90
15328;DHT22;7764;51.430;6.840;2023-09-12T06:50:20;19.60;99.90
15328;DHT22;7764;51.430;6.840;2023-09-12T06:52:48;19.50;99.90
15328;DHT22;7764;51.430;6.840;2023-09-12T06:55:15;19.40;99.90
15328;DHT22;7764;51.430;6.840;2023-09-12T06:57:42;19.40;99.90
15328;DHT22;7764;51.430;6.840;2023-09-12T07:00:12;19.40;99.90
15328;DHT22;7764;51.430;6.840;2023-09-12T07:02:39;19.40;99.90
15328;DHT22;7764;51.430;6.840;2023-09-12T07:05:06;19.40;99.90
15328;DHT22;7764;51.430;6.840;2023-09-12T07:07:33;19.30;99.90
15328;DHT22;7764;51.430;6.840;2023-09-12T07:10:02;19.40;99.90
15328;DHT22;7764;51.430;6.840;2023-09-12T07:12:29;19.40;99.90
15328;DHT22;7764;51.430;6.840;2023-09-12T07:14:58;19.40;99.90
15328;DHT22;7764;51.430;6.840;2023-09-12T07:17:27;19.40;99.90
15328;DHT22;7764;51.430;6.840;2023-09-12T07:19:54;19.30;99.90
15328;DHT22;7764;51.430;6.840;2023-09-12T07:22:21;19.20;99.90
15328;DHT22;7764;51.430;6.840;2023-09-12T07:24:48;19.10;99.90
15328;DHT22;7764;51.430;6.840;2023-09-12T07:27:16;19.00;99.90
15328;DHT22;7764;51.430;6.840;2023-09-12T07:29:43;19.10;99.90
15328;DHT22;7764;51.430;6.840;2023-09-12T07:32:10;19.20;99.90
15328;DHT22;7764;51.430;6.840;2023-09-12T07:34:37;19.30;99.90
15328;DHT22;7764;51.430;6.840;2023-09-12T07:37:04;19.30;99.90
15328;DHT22;7764;51.430;6.840;2023-09-12T07:39:31;19.40;99.90
15328;DHT22;7764;51.430;6.840;2023-09-12T07:41:58;19.30;99.90
15328;DHT22;7764;51.430;6.840;2023-09-12T07:44:28;19.40;99.90
15328;DHT22;7764;51.430;6.840;2023-09-12T07:46:55;19.40;99.90
15328;DHT22;7764;51.430;6.840;2023-09-12T07:49:22;19.60;99.90
15328;DHT22;7764;51.430;6.840;2023-09-12T07:51:51;19.70;99.90
15328;DHT22;7764;51.430;6.840;2023-09-12T07:54:20;19.70;99.90
15328;DHT22;7764;51.430;6.840;2023-09-12T07:56:47;19.90;99.90
15328;DHT22;7764;51.430;6.840;2023-09-12T07:59:15;20.00;99.90
15328;DHT22;7764;51.430;6.840;2023-09-12T08:01:43;20.00;99.90
15328;DHT22;7764;51.430;6.840;2023-09-12T08:04:10;20.10;99.90
15328;DHT22;7764;51.430;6.840;2023-09-12T08:06:37;20.20;99.90
15328;DHT22;7764;51.430;6.840;2023-09-12T08:09:04;20.20;99.90
15328;DHT22;7764;51.430;6.840;2023-09-12T08:11:31;20.30;99.90
15328;DHT22;7764;51.430;6.840;2023-09-12T08:13:58;20.40;99.90
15328;DHT22;7764;51.430;6.840;2023-09-12T08:16:25;20.60;99.90
15328;DHT22;7764;51.430;6.840;2023-09-12T08:18:54;20.60;99.90
15328;DHT22;7764;51.430;6.840;2023-09-12T08:21:20;20.90;99.90
15328;DHT22;7764;51.430;6.840;2023-09-12T08:23:49;21.00;99.90
15328;DHT22;7764;51.430;6.840;2023-09-12T08:26:16;21.20;99.90
15328;DHT22;7764;51.430;6.840;2023-09-12T08:28:43;21.40;99.90
15328;DHT22;7764;51.430;6.840;2023-09-12T08:33:37;21.60;99.90
15328;DHT22;7764;51.430;6.840;2023-09-12T08:36:06;20.90;99.90
15328;DHT22;7764;51.430;6.840;2023-09-12T08:38:33;22.20;99.90
15328;DHT22;7764;51.430;6.840;2023-09-12T08:41:00;22.30;99.90
15328;DHT22;7764;51.430;6.840;2023-09-12T08:43:26;22.40;99.90
15328;DHT22;7764;51.430;6.840;2023-09-12T08:45:53;22.60;99.90
15328;DHT22;7764;51.430;6.840;2023-09-12T08:48:21;22.60;99.90
15328;DHT22;7764;51.430;6.840;2023-09-12T10:12:35;24.60;99.90
15328;DHT22;7764;51.430;6.840;2023-09-12T10:15:04;24.40;99.90
15328;DHT22;7764;51.430;6.840;2023-09-12T10:17:36;24.50;99.90
15328;DHT22;7764;51.430;6.840;2023-09-12T10:20:10;24.10;99.90
15328;DHT22;7764;51.430;6.840;2023-09-12T10:22:40;24.00;99.90
15328;DHT22;7764;51.430;6.840;2023-09-12T10:25:11;23.90;99.90
15328;DHT22;7764;51.430;6.840;2023-09-12T10:27:38;23.90;99.90
15328;DHT22;7764;51.430;6.840;2023-09-12T10:30:07;24.10;99.90
15328;DHT22;7764;51.430;6.840;2023-09-12T10:32:35;24.20;99.90
15328;DHT22;7764;51.430;6.840;2023-09-12T10:35:06;24.60;99.90
15328;DHT22;7764;51.430;6.840;2023-09-12T10:37:38;24.40;99.90
15328;DHT22;7764;51.430;6.840;2023-09-12T10:40:09;24.20;99.90
15328;DHT22;7764;51.430;6.840;2023-09-12T10:42:39;24.20;99.90
15328;DHT22;7764;51.430;6.840;2023-09-12T10:45:10;24.60;99.90
15328;DHT22;7764;51.430;6.840;2023-09-12T10:47:38;24.40;99.90
15328;DHT22;7764;51.430;6.840;2023-09-12T10:50:08;24.50;99.90
15328;DHT22;7764;51.430;6.840;2023-09-12T10:52:35;24.30;99.90
15328;DHT22;7764;51.430;6.840;2023-09-12T10:55:06;24.60;99.90
15328;DHT22;7764;51.430;6.840;2023-09-12T10:57:33;24.80;99.90
15328;DHT22;7764;51.430;6.840;2023-09-12T11:00:13;24.50;99.90
15328;DHT22;7764;51.430;6.840;2023-09-12T11:02:40;24.60;99.90
15328;DHT22;7764;51.430;6.840;2023-09-12T11:05:37;24.50;99.90
15328;DHT22;7764;51.430;6.840;2023-09-12T11:08:04;24.60;99.90
15328;DHT22;7764;51.430;6.840;2023-09-12T11:10:31;24.90;99.90
15328;DHT22;7764;51.430;6.840;2023-09-12T11:12:59;24.90;99.90
15328;DHT22;7764;51.430;6.840;2023-09-12T11:15:27;24.90;99.90
15328;DHT22;7764;51.430;6.840;2023-09-12T11:18:01;25.10;99.90
15328;DHT22;7764;51.430;6.840;2023-09-12T11:20:51;25.10;99.90
15328;DHT22;7764;51.430;6.840;2023-09-12T11:23:23;25.10;99.90
15328;DHT22;7764;51.430;6.840;2023-09-12T11:26:03;25.00;99.90
15328;DHT22;7764;51.430;6.840;2023-09-12T11:28:31;25.20;99.90
15328;DHT22;7764;51.430;6.840;2023-09-12T11:30:58;25.30;99.90
15328;DHT22;7764;51.430;6.840;2023-09-12T11:33:26;25.00;99.90
15328;DHT22;7764;51.430;6.840;2023-09-12T11:36:04;25.00;99.90
15328;DHT22;7764;51.430;6.840;2023-09-12T11:38:36;25.20;99.90
15328;DHT22;7764;51.430;6.840;2023-09-12T11:41:06;25.20;99.90
15328;DHT22;7764;51.430;6.840;2023-09-12T11:43:37;25.50;99.90
15328;DHT22;7764;51.430;6.840;2023-09-12T11:46:07;25.30;99.90
15328;DHT22;7764;51.430;6.840;2023-09-12T11:48:35;25.30;99.90
15328;DHT22;7764;51.430;6.840;2023-09-12T11:51:07;25.40;99.90
15328;DHT22;7764;51.430;6.840;2023-09-12T11:53:34;25.20;99.90
15328;DHT22;7764;51.430;6.840;2023-09-12T11:56:01;25.40;99.90
15328;DHT22;7764;51.430;6.840;2023-09-12T11:58:28;25.50;99.90
15328;DHT22;7764;51.430;6.840;2023-09-12T12:00:56;25.50;99.90
15328;DHT22;7764;51.430;6.840;2023-09-12T12:03:26;25.70;99.90
15328;DHT22;7764;51.430;6.840;2023-09-12T12:05:54;25.70;99.90
15328;DHT22;7764;51.430;6.840;2023-09-12T12:08:24;25.60;99.90
15328;DHT22;7764;51.430;6.840;2023-09-12T12:10:51;25.40;99.90
15328;DHT22;7764;51.430;6.840;2023-09-12T12:13:19;25.40;99.90
15328;DHT22;7764;51.430;6.840;2023-09-12T12:15:46;25.30;99.90
15328;DHT22;7764;51.430;6.840;2023-09-12T12:18:13;25.50;99.90
15328;DHT22;7764;51.430;6.840;2023-09-12T12:20:40;25.70;99.90
15328;DHT22;7764;51.430;6.840;2023-09-12T12:23:07;25.50;99.90
15328;DHT22;7764;51.430;6.840;2023-09-12T12:25:35;25.30;99.90
15328;DHT22;7764;51.430;6.840;2023-09-12T12:28:03;25.30;99.90
15328;DHT22;7764;51.430;6.840;2023-09-12T12:30:31;25.30;99.90
15328;DHT22;7764;51.430;6.840;2023-09-12T12:33:00;25.30;99.90
15328;DHT22;7764;51.430;6.840;2023-09-12T12:35:28;25.40;99.90
15328;DHT22;7764;51.430;6.840;2023-09-12T12:37:56;25.60;99.90
15328;DHT22;7764;51.430;6.840;2023-09-12T12:40:23;25.60;99.90
15328;DHT22;7764;51.430;6.840;2023-09-12T12:42:52;25.80;99.90
15328;DHT22;7764;51.430;6.840;2023-09-12T12:45:20;25.80;99.90
15328;DHT22;7764;51.430;6.840;2023-09-12T12:47:51;25.90;99.90
15328;DHT22;7764;51.430;6.840;2023-09-12T12:50:18;25.90;99.90
15328;DHT22;7764;51.430;6.840;2023-09-12T12:52:47;26.00;99.90
15328;DHT22;7764;51.430;6.840;2023-09-12T12:55:15;26.00;99.90
15328;DHT22;7764;51.430;6.840;2023-09-12T12:57:44;26.40;99.90
15328;DHT22;7764;51.430;6.840;2023-09-12T13:00:13;26.00;99.90
15328;DHT22;7764;51.430;6.840;2023-09-12T13:02:41;25.90;99.90
15328;DHT22;7764;51.430;6.840;2023-09-12T13:05:20;26.00;99.90
15328;DHT22;7764;51.430;6.840;2023-09-12T13:07:47;25.90;99.90
15328;DHT22;7764;51.430;6.840;2023-09-12T13:10:14;25.70;99.90
15328;DHT22;7764;51.430;6.840;2023-09-12T13:12:41;25.40;99.90
15328;DHT22;7764;51.430;6.840;2023-09-12T13:15:12;25.50;99.90
15328;DHT22;7764;51.430;6.840;2023-09-12T13:17:40;25.40;99.90
15328;DHT22;7764;51.430;6.840;2023-09-12T13:20:08;25.50;99.90
15328;DHT22;7764;51.430;6.840;2023-09-12T13:22:35;25.90;99.90
15328;DHT22;7764;51.430;6.840;2023-09-12T13:25:02;25.90;99.90
15328;DHT22;7764;51.430;6.840;2023-09-12T13:27:30;25.80;99.90
15328;DHT22;7764;51.430;6.840;2023-09-12T13:29:56;26.10;99.90
15328;DHT22;7764;51.430;6.840;2023-09-12T13:32:25;26.20;99.90
15328;DHT22;7764;51.430;6.840;2023-09-12T13:34:53;26.30;99.90
15328;DHT22;7764;51.430;6.840;2023-09-12T13:37:19;26.40;99.90
15328;DHT22;7764;51.430;6.840;2023-09-12T13:39:47;26.10;99.90
15328;DHT22;7764;51.430;6.840;2023-09-12T13:42:15;25.60;99.90
15328;DHT22;7764;51.430;6.840;2023-09-12T13:44:47;25.70;99.90
15328;DHT22;7764;51.430;6.840;2023-09-12T13:47:15;26.00;99.90
15328;DHT22;7764;51.430;6.840;2023-09-12T13:49:48;25.80;99.90
15328;DHT22;7764;51.430;6.840;2023-09-12T13:52:17;25.90;99.90
15328;DHT22;7764;51.430;6.840;2023-09-12T13:54:44;25.60;99.90
15328;DHT22;7764;51.430;6.840;2023-09-12T13:57:11;25.90;99.90
15328;DHT22;7764;51.430;6.840;2023-09-12T13:59:38;25.60;99.90
15328;DHT22;7764;51.430;6.840;2023-09-12T14:02:06;25.80;99.90
15328;DHT22;7764;51.430;6.840;2023-09-12T14:04:33;25.90;99.90
15328;DHT22;7764;51.430;6.840;2023-09-12T14:07:01;25.90;99.90
15328;DHT22;7764;51.430;6.840;2023-09-12T14:09:28;25.80;99.90
15328;DHT22;7764;51.430;6.840;2023-09-12T14:11:55;26.20;99.90
15328;DHT22;7764;51.430;6.840;2023-09-12T14:14:22;26.20;99.90
15328;DHT22;7764;51.430;6.840;2023-09-12T14:16:49;26.10;99.90
15328;DHT22;7764;51.430;6.840;2023-09-12T14:19:16;25.90;99.90
15328;DHT22;7764;51.430;6.840;2023-09-12T14:21:43;26.20;99.90
15328;DHT22;7764;51.430;6.840;2023-09-12T14:24:12;25.90;99.90
15328;DHT22;7764;51.430;6.840;2023-09-12T14:26:38;25.90;99.90
15328;DHT22;7764;51.430;6.840;2023-09-12T14:29:05;25.90;99.90
15328;DHT22;7764;51.430;6.840;2023-09-12T14:31:32;26.00;99.90
15328;DHT22;7764;51.430;6.840;2023-09-12T14:34:01;26.00;99.90
15328;DHT22;7764;51.430;6.840;2023-09-12T14:36:29;26.00;99.90
15328;DHT22;7764;51.430;6.840;2023-09-12T14:38:56;26.00;99.90
15328;DHT22;7764;51.430;6.840;2023-09-12T14:41:24;25.90;99.90
15328;DHT22;7764;51.430;6.840;2023-09-12T14:43:51;26.10;99.90
15328;DHT22;7764;51.430;6.840;2023-09-12T14:46:18;26.30;99.90
15328;DHT22;7764;51.430;6.840;2023-09-12T14:48:45;26.30;99.90
15328;DHT22;7764;51.430;6.840;2023-09-12T14:51:12;26.10;99.90
15328;DHT22;7764;51.430;6.840;2023-09-12T14:53:38;25.90;99.90
15328;DHT22;7764;51.430;6.840;2023-09-12T14:56:09;25.90;99.90
15328;DHT22;7764;51.430;6.840;2023-09-12T14:58:37;26.00;99.90
15328;DHT22;7764;51.430;6.840;2023-09-12T15:01:04;26.00;99.90
15328;DHT22;7764;51.430;6.840;2023-09-12T15:03:31;25.70;99.90
15328;DHT22;7764;51.430;6.840;2023-09-12T15:06:03;25.90;99.90
15328;DHT22;7764;51.430;6.840;2023-09-12T15:08:30;25.80;99.90
15328;DHT22;7764;51.430;6.840;2023-09-12T15:10:57;25.60;99.90
15328;DHT22;7764;51.430;6.840;2023-09-12T15:13:24;25.80;99.90
15328;DHT22;7764;51.430;6.840;2023-09-12T15:15:53;25.70;99.90
15328;DHT22;7764;51.430;6.840;2023-09-12T15:18:19;25.70;99.90
15328;DHT22;7764;51.430;6.840;2023-09-12T15:20:46;26.00;99.90
15328;DHT22;7764;51.430;6.840;2023-09-12T15:23:13;25.80;99.90
15328;DHT22;7764;51.430;6.840;2023-09-12T15:25:40;25.60;99.90
15328;DHT22;7764;51.430;6.840;2023-09-12T15:28:07;25.90;99.90
15328;DHT22;7764;51.430;6.840;2023-09-12T15:30:34;25.90;99.90
15328;DHT22;7764;51.430;6.840;2023-09-12T15:33:02;25.70;99.90
15328;DHT22;7764;51.430;6.840;2023-09-12T15:35:29;25.60;99.90
15328;DHT22;7764;51.430;6.840;2023-09-12T15:37:59;25.60;99.90
15328;DHT22;7764;51.430;6.840;2023-09-12T15:40:31;25.90;99.90
15328;DHT22;7764;51.430;6.840;2023-09-12T15:42:58;25.70;99.90
15328;DHT22;7764;51.430;6.840;2023-09-12T15:45:25;25.90;99.90
15328;DHT22;7764;51.430;6.840;2023-09-12T15:47:52;26.10;99.90
15328;DHT22;7764;51.430;6.840;2023-09-12T15:50:24;25.90;99.90
15328;DHT22;7764;51.430;6.840;2023-09-12T15:52:53;25.80;99.90
15328;DHT22;7764;51.430;6.840;2023-09-12T15:55:20;25.70;99.90
15328;DHT22;7764;51.430;6.840;2023-09-12T15:57:47;25.50;99.90
15328;DHT22;7764;51.430;6.840;2023-09-12T16:00:14;25.50;99.90
15328;DHT22;7764;51.430;6.840;2023-09-12T16:02:41;25.30;99.90
15328;DHT22;7764;51.430;6.840;2023-09-12T16:05:09;25.60;99.90
15328;DHT22;7764;51.430;6.840;2023-09-12T16:07:37;25.50;99.90
15328;DHT22;7764;51.430;6.840;2023-09-12T16:10:05;25.50;99.90
15328;DHT22;7764;51.430;6.840;2023-09-12T16:12:33;25.30;99.90
15328;DHT22;7764;51.430;6.840;2023-09-12T16:15:00;25.30;99.90
15328;DHT22;7764;51.430;6.840;2023-09-12T16:17:27;25.40;99.90
15328;DHT22;7764;51.430;6.840;2023-09-12T16:19:54;25.10;99.90
15328;DHT22;7764;51.430;6.840;2023-09-12T16:22:21;25.10;99.90
15328;DHT22;7764;51.430;6.840;2023-09-12T16:24:49;25.10;99.90
15328;DHT22;7764;51.430;6.840;2023-09-12T16:27:19;25.10;99.90
15328;DHT22;7764;51.430;6.840;2023-09-12T16:29:48;25.10;99.90
15328;DHT22;7764;51.430;6.840;2023-09-12T16:32:15;25.20;99.90
15328;DHT22;7764;51.430;6.840;2023-09-12T16:34:42;24.90;99.90
15328;DHT22;7764;51.430;6.840;2023-09-12T16:37:08;24.70;99.90
15328;DHT22;7764;51.430;6.840;2023-09-12T16:39:36;24.90;99.90
15328;DHT22;7764;51.430;6.840;2023-09-12T16:42:08;24.70;99.90
15328;DHT22;7764;51.430;6.840;2023-09-12T16:44:37;24.50;99.90
15328;DHT22;7764;51.430;6.840;2023-09-12T16:47:07;24.50;99.90
15328;DHT22;7764;51.430;6.840;2023-09-12T16:49:34;24.60;99.90
15328;DHT22;7764;51.430;6.840;2023-09-12T16:52:05;24.60;99.90
15328;DHT22;7764;51.430;6.840;2023-09-12T16:54:35;24.30;99.90
15328;DHT22;7764;51.430;6.840;2023-09-12T16:57:02;24.30;99.90
15328;DHT22;7764;51.430;6.840;2023-09-12T16:59:31;24.20;99.90
15328;DHT22;7764;51.430;6.840;2023-09-12T17:01:58;24.40;99.90
15328;DHT22;7764;51.430;6.840;2023-09-12T17:14:16;24.00;99.90
15328;DHT22;7764;51.430;6.840;2023-09-12T17:16:44;24.30;99.90
15328;DHT22;7764;51.430;6.840;2023-09-12T17:19:11;24.30;99.90
15328;DHT22;7764;51.430;6.840;2023-09-12T17:21:39;24.40;99.90
15328;DHT22;7764;51.430;6.840;2023-09-12T17:24:06;24.20;99.90
15328;DHT22;7764;51.430;6.840;2023-09-12T17:26:33;24.30;99.90
15328;DHT22;7764;51.430;6.840;2023-09-12T17:29:00;24.40;99.90
15328;DHT22;7764;51.430;6.840;2023-09-12T17:31:27;24.30;99.90
15328;DHT22;7764;51.430;6.840;2023-09-12T17:33:55;24.20;99.90
15328;DHT22;7764;51.430;6.840;2023-09-12T17:36:22;24.20;99.90
15328;DHT22;7764;51.430;6.840;2023-09-12T17:38:48;24.20;99.90
15328;DHT22;7764;51.430;6.840;2023-09-12T17:41:15;24.20;99.90
15328;DHT22;7764;51.430;6.840;2023-09-12T17:43:44;24.20;99.90
15328;DHT22;7764;51.430;6.840;2023-09-12T17:46:11;24.30;99.90
15328;DHT22;7764;51.430;6.840;2023-09-12T17:48:38;24.10;99.90
15328;DHT22;7764;51.430;6.840;2023-09-12T17:51:08;24.00;99.90
15328;DHT22;7764;51.430;6.840;2023-09-12T17:53:35;24.10;99.90
15328;DHT22;7764;51.430;6.840;2023-09-12T17:56:01;24.30;99.90
15328;DHT22;7764;51.430;6.840;2023-09-12T17:58:28;24.00;99.90
15328;DHT22;7764;51.430;6.840;2023-09-12T18:00:55;24.00;99.90
15328;DHT22;7764;51.430;6.840;2023-09-12T18:03:22;24.00;99.90
15328;DHT22;7764;51.430;6.840;2023-09-12T18:05:49;24.10;99.90
15328;DHT22;7764;51.430;6.840;2023-09-12T18:08:18;23.90;99.90
15328;DHT22;7764;51.430;6.840;2023-09-12T18:10:45;24.20;99.90
15328;DHT22;7764;51.430;6.840;2023-09-12T18:13:11;24.00;99.90
15328;DHT22;7764;51.430;6.840;2023-09-12T18:15:38;24.20;99.90
15328;DHT22;7764;51.430;6.840;2023-09-12T18:18:05;23.90;99.90
15328;DHT22;7764;51.430;6.840;2023-09-12T18:20:33;23.90;99.90
15328;DHT22;7764;51.430;6.840;2023-09-12T18:22:59;24.10;99.90
15328;DHT22;7764;51.430;6.840;2023-09-12T18:25:28;23.90;99.90
15328;DHT22;7764;51.430;6.840;2023-09-12T18:27:55;24.10;99.90
15328;DHT22;7764;51.430;6.840;2023-09-12T18:30:22;23.90;99.90
15328;DHT22;7764;51.430;6.840;2023-09-12T18:32:49;23.80;99.90
15328;DHT22;7764;51.430;6.840;2023-09-12T18:35:19;23.80;99.90
15328;DHT22;7764;51.430;6.840;2023-09-12T18:37:47;23.80;99.90
15328;DHT22;7764;51.430;6.840;2023-09-12T18:40:14;23.40;99.90
15328;DHT22;7764;51.430;6.840;2023-09-12T18:42:42;23.40;99.90
15328;DHT22;7764;51.430;6.840;2023-09-12T18:45:09;23.40;99.90
15328;DHT22;7764;51.430;6.840;2023-09-12T19:07:16;22.50;99.90
15328;DHT22;7764;51.430;6.840;2023-09-12T19:09:43;22.60;99.90
15328;DHT22;7764;51.430;6.840;2023-09-12T19:12:10;22.60;99.90
15328;DHT22;7764;51.430;6.840;2023-09-12T19:14:37;22.40;99.90
15328;DHT22;7764;51.430;6.840;2023-09-12T19:17:05;22.60;99.90
15328;DHT22;7764;51.430;6.840;2023-09-12T19:24:29;22.10;99.90
15328;DHT22;7764;51.430;6.840;2023-09-12T19:26:56;22.30;99.90
15328;DHT22;7764;51.430;6.840;2023-09-12T19:31:51;22.20;99.90
15328;DHT22;7764;51.430;6.840;2023-09-12T19:34:19;22.30;99.90
15328;DHT22;7764;51.430;6.840;2023-09-12T19:46:38;22.10;99.90
15328;DHT22;7764;51.430;6.840;2023-09-12T19:49:06;21.90;99.90
15328;DHT22;7764;51.430;6.840;2023-09-12T19:51:35;21.80;99.90
15328;DHT22;7764;51.430;6.840;2023-09-12T19:54:02;21.70;99.90
15328;DHT22;7764;51.430;6.840;2023-09-12T19:56:29;21.70;99.90
15328;DHT22;7764;51.430;6.840;2023-09-12T19:58:56;21.60;99.90
15328;DHT22;7764;51.430;6.840;2023-09-12T20:01:23;21.50;99.90
15328;DHT22;7764;51.430;6.840;2023-09-12T20:03:50;21.50;99.90
15328;DHT22;7764;51.430;6.840;2023-09-12T20:06:16;21.50;99.90
15328;DHT22;7764;51.430;6.840;2023-09-12T20:08:45;22.00;99.90
15328;DHT22;7764;51.430;6.840;2023-09-12T20:11:12;21.90;99.90
15328;DHT22;7764;51.430;6.840;2023-09-12T20:13:39;21.50;99.90
15328;DHT22;7764;51.430;6.840;2023-09-12T20:16:09;21.20;99.90
15328;DHT22;7764;51.430;6.840;2023-09-12T20:18:39;21.30;99.90
15328;DHT22;7764;51.430;6.840;2023-09-12T20:21:07;21.40;99.90
15328;DHT22;7764;51.430;6.840;2023-09-12T20:23:34;21.40;99.90
15328;DHT22;7764;51.430;6.840;2023-09-12T20:26:03;21.40;99.90
15328;DHT22;7764;51.430;6.840;2023-09-12T20:28:34;21.40;99.90
15328;DHT22;7764;51.430;6.840;2023-09-12T20:31:01;21.40;99.90
15328;DHT22;7764;51.430;6.840;2023-09-12T20:33:29;21.40;99.90
15328;DHT22;7764;51.430;6.840;2023-09-12T20:35:57;21.30;99.90
15328;DHT22;7764;51.430;6.840;2023-09-12T20:38:24;21.30;99.90
15328;DHT22;7764;51.430;6.840;2023-09-12T20:40:51;21.30;99.90
15328;DHT22;7764;51.430;6.840;2023-09-12T20:43:19;21.30;99.90
15328;DHT22;7764;51.430;6.840;2023-09-12T20:45:46;21.40;99.90
15328;DHT22;7764;51.430;6.840;2023-09-12T20:48:13;21.40;99.90
15328;DHT22;7764;51.430;6.840;2023-09-12T20:50:41;21.40;99.90
15328;DHT22;7764;51.430;6.840;2023-09-12T20:53:10;21.40;99.90
15328;DHT22;7764;51.430;6.840;2023-09-12T20:55:40;21.40;99.90
15328;DHT22;7764;51.430;6.840;2023-09-12T20:58:07;21.30;99.90
15328;DHT22;7764;51.430;6.840;2023-09-12T21:00:36;21.30;99.90
15328;DHT22;7764;51.430;6.840;2023-09-12T21:03:03;21.30;99.90
15328;DHT22;7764;51.430;6.840;2023-09-12T21:05:31;21.30;99.90
15328;DHT22;7764;51.430;6.840;2023-09-12T21:07:58;21.30;99.90
15328;DHT22;7764;51.430;6.840;2023-09-12T21:10:25;21.30;99.90
15328;DHT22;7764;51.430;6.840;2023-09-12T21:12:52;21.20;99.90
15328;DHT22;7764;51.430;6.840;2023-09-12T21:15:19;21.20;99.90
15328;DHT22;7764;51.430;6.840;2023-09-12T21:17:47;21.10;99.90
15328;DHT22;7764;51.430;6.840;2023-09-12T21:20:14;21.10;99.90
15328;DHT22;7764;51.430;6.840;2023-09-12T21:22:41;21.10;99.90
15328;DHT22;7764;51.430;6.840;2023-09-12T21:25:08;21.00;99.90
15328;DHT22;7764;51.430;6.840;2023-09-12T21:27:35;21.00;99.90
15328;DHT22;7764;51.430;6.840;2023-09-12T21:30:02;21.00;99.90
15328;DHT22;7764;51.430;6.840;2023-09-12T21:32:30;20.90;99.90
15328;DHT22;7764;51.430;6.840;2023-09-12T21:35:10;20.90;99.90
15328;DHT22;7764;51.430;6.840;2023-09-12T21:37:40;20.90;99.90
15328;DHT22;7764;51.430;6.840;2023-09-12T21:40:08;20.90;99.90
15328;DHT22;7764;51.430;6.840;2023-09-12T21:42:36;20.90;99.90
15328;DHT22;7764;51.430;6.840;2023-09-12T21:45:04;20.90;99.90
15328;DHT22;7764;51.430;6.840;2023-09-12T21:47:31;21.00;99.90
15328;DHT22;7764;51.430;6.840;2023-09-12T21:49:58;21.00;99.90
15328;DHT22;7764;51.430;6.840;2023-09-12T21:52:26;21.00;99.90
15328;DHT22;7764;51.430;6.840;2023-09-12T21:54:53;20.80;99.90
15328;DHT22;7764;51.430;6.840;2023-09-12T21:57:20;20.80;99.90
15328;DHT22;7764;51.430;6.840;2023-09-12T21:59:47;20.70;99.90
15328;DHT22;7764;51.430;6.840;2023-09-12T22:02:14;20.80;99.90
15328;DHT22;7764;51.430;6.840;2023-09-12T22:04:41;20.70;99.90
15328;DHT22;7764;51.430;6.840;2023-09-12T22:07:08;20.70;99.90
15328;DHT22;7764;51.430;6.840;2023-09-12T22:09:36;20.70;99.90
15328;DHT22;7764;51.430;6.840;2023-09-12T22:12:03;20.70;99.90
15328;DHT22;7764;51.430;6.840;2023-09-12T22:14:30;20.70;99.90
15328;DHT22;7764;51.430;6.840;2023-09-12T22:16:57;20.70;99.90